createdAt,value
2022-10-11T00:00:15.679Z,16.27
2022-10-11T00:02:42.998Z,16.33
2022-10-11T00:05:10.549Z,15.68
2022-10-11T00:07:38.520Z,23.80
2022-10-11T00:10:09.573Z,18.35
2022-10-11T00:12:37.311Z,24.83
2022-10-11T00:15:06.342Z,18.17
2022-10-11T00:17:34.202Z,17.25
2022-10-11T00:20:01.590Z,21.00
2022-10-11T00:22:28.982Z,28.15
2022-10-11T00:24:58.670Z,20.45
2022-10-11T00:27:26.062Z,29.67
2022-10-11T00:29:53.533Z,33.97
2022-10-11T00:32:20.911Z,26.60
2022-10-11T00:34:48.321Z,25.15
2022-10-11T00:37:15.676Z,25.38
2022-10-11T00:39:43.378Z,25.35
2022-10-11T00:42:15.316Z,20.65
2022-10-11T00:44:50.093Z,29.05
2022-10-11T00:47:20.255Z,17.23
2022-10-11T00:49:55.611Z,22.65
2022-10-11T00:52:40.574Z,24.35
2022-10-11T00:55:14.098Z,23.83
2022-10-11T00:57:46.181Z,28.45
2022-10-11T01:00:15.116Z,19.38
2022-10-11T01:02:43.195Z,27.95
2022-10-11T01:05:30.304Z,15.40
2022-10-11T01:08:01.917Z,13.90
2022-10-11T01:10:29.462Z,24.88
2022-10-11T01:13:32.704Z,15.60
2022-10-11T01:16:03.092Z,22.08
2022-10-11T01:18:50.090Z,18.40
2022-10-11T01:21:35.055Z,10.35
2022-10-11T01:24:41.654Z,18.90
2022-10-11T01:27:32.867Z,28.13
2022-10-11T01:30:24.675Z,19.75
2022-10-11T01:33:07.581Z,19.73
2022-10-11T01:35:49.734Z,25.92
2022-10-11T01:38:47.905Z,18.75
2022-10-11T01:41:28.656Z,22.55
2022-10-11T01:43:59.569Z,15.57
2022-10-11T01:46:29.272Z,18.60
2022-10-11T01:49:00.364Z,19.10
2022-10-11T01:51:34.586Z,19.73
2022-10-11T01:54:02.300Z,15.85
2022-10-11T01:56:38.516Z,19.13
2022-10-11T01:59:39.203Z,18.13
2022-10-11T02:02:44.273Z,23.88
2022-10-11T02:05:29.664Z,18.88
2022-10-11T02:08:09.405Z,14.30
2022-10-11T02:11:04.048Z,21.10
2022-10-11T02:13:47.142Z,32.83
2022-10-11T02:16:19.704Z,26.52
2022-10-11T02:18:50.423Z,23.70
2022-10-11T02:21:21.731Z,20.15
2022-10-11T02:23:54.192Z,18.70
2022-10-11T02:26:23.797Z,17.00
2022-10-11T02:28:56.077Z,18.38
2022-10-11T02:31:24.497Z,18.40
2022-10-11T02:34:00.678Z,24.60
2022-10-11T02:36:54.235Z,27.50
2022-10-11T02:39:45.797Z,23.20
2022-10-11T02:42:42.991Z,20.02
2022-10-11T02:45:23.485Z,22.60
2022-10-11T02:47:50.902Z,18.58
2022-10-11T02:50:18.356Z,20.42
2022-10-11T02:52:45.721Z,22.60
2022-10-11T02:55:13.091Z,20.02
2022-10-11T02:57:40.338Z,17.42
2022-10-11T03:00:09.034Z,25.42
2022-10-11T03:02:36.519Z,28.38
2022-10-11T03:05:03.968Z,23.25
2022-10-11T03:07:31.301Z,23.67
2022-10-11T03:09:58.553Z,19.58
2022-10-11T03:12:26.009Z,18.70
2022-10-11T03:14:53.277Z,27.67
2022-10-11T03:17:35.668Z,11.40
2022-10-11T03:20:06.277Z,20.00
2022-10-11T03:22:33.572Z,25.67
2022-10-11T03:25:03.991Z,23.20
2022-10-11T03:27:33.442Z,26.90
2022-10-11T03:30:01.345Z,14.48
2022-10-11T03:32:29.388Z,27.65
2022-10-11T03:34:57.289Z,22.83
2022-10-11T03:37:25.357Z,19.48
2022-10-11T03:39:52.975Z,16.20
2022-10-11T03:42:21.319Z,19.05
2022-10-11T03:44:51.658Z,20.40
2022-10-11T03:47:19.558Z,27.05
2022-10-11T03:49:46.848Z,27.77
2022-10-11T03:52:14.085Z,22.83
2022-10-11T03:54:41.386Z,25.10
2022-10-11T03:57:08.870Z,25.00
2022-10-11T03:59:36.197Z,20.33
2022-10-11T04:02:04.622Z,25.42
2022-10-11T04:04:32.010Z,17.13
2022-10-11T04:06:59.359Z,23.63
2022-10-11T04:09:26.843Z,20.20
2022-10-11T04:11:54.095Z,23.77
2022-10-11T04:14:21.362Z,18.83
2022-10-11T04:16:48.619Z,21.75
2022-10-11T04:19:15.955Z,24.77
2022-10-11T04:21:43.420Z,25.67
2022-10-11T04:24:13.749Z,25.98
2022-10-11T04:26:41.065Z,26.48
2022-10-11T04:29:08.422Z,24.48
2022-10-11T04:31:35.676Z,19.25
2022-10-11T04:34:02.970Z,24.98
2022-10-11T04:36:33.081Z,15.27
2022-10-11T04:39:01.652Z,18.20
2022-10-11T04:41:29.635Z,12.70
2022-10-11T04:43:57.090Z,31.27
2022-10-11T04:46:24.871Z,31.17
2022-10-11T04:48:52.409Z,26.88
2022-10-11T04:51:20.289Z,32.63
2022-10-11T04:53:48.696Z,25.85
2022-10-11T04:56:18.437Z,22.48
2022-10-11T04:58:49.293Z,23.42
2022-10-11T05:01:16.806Z,17.33
2022-10-11T05:03:44.012Z,17.85
2022-10-11T05:06:11.629Z,20.88
2022-10-11T05:08:39.221Z,24.15
2022-10-11T05:11:10.775Z,17.50
2022-10-11T05:13:38.158Z,31.10
2022-10-11T05:16:10.864Z,17.27
2022-10-11T05:18:40.116Z,17.08
2022-10-11T05:21:14.257Z,25.90
2022-10-11T05:23:42.145Z,26.92
2022-10-11T05:26:10.120Z,26.13
2022-10-11T05:28:37.760Z,24.08
2022-10-11T05:31:05.276Z,27.25
2022-10-11T05:33:32.934Z,28.55
2022-10-11T05:36:00.716Z,26.73
2022-10-11T05:38:28.196Z,21.92
2022-10-11T05:40:58.581Z,20.63
2022-10-11T05:43:26.193Z,19.48
2022-10-11T05:45:54.067Z,18.55
2022-10-11T05:48:21.677Z,24.17
2022-10-11T05:50:49.226Z,31.77
2022-10-11T05:53:16.658Z,15.07
2022-10-11T05:55:44.224Z,23.27
2022-10-11T05:58:14.483Z,26.83
2022-10-11T06:00:41.796Z,29.88
2022-10-11T06:03:12.506Z,21.30
2022-10-11T06:05:40.299Z,26.55
2022-10-11T06:08:09.916Z,18.88
2022-10-11T06:10:38.547Z,14.27
2022-10-11T06:13:07.202Z,35.30
2022-10-11T06:15:34.996Z,20.85
2022-10-11T06:18:02.340Z,22.42
2022-10-11T06:20:29.987Z,26.33
2022-10-11T06:22:58.890Z,17.90
2022-10-11T06:25:26.376Z,17.90
2022-10-11T06:27:54.109Z,25.42
2022-10-11T06:30:21.605Z,26.48
2022-10-11T06:32:48.907Z,30.08
2022-10-11T06:35:16.380Z,26.23
2022-10-11T06:37:43.851Z,21.98
2022-10-11T06:40:11.807Z,22.52
2022-10-11T06:42:39.164Z,31.27
2022-10-11T06:45:07.038Z,20.33
2022-10-11T06:47:34.313Z,26.40
2022-10-11T06:50:01.625Z,25.90
2022-10-11T06:52:28.938Z,28.90
2022-10-11T06:54:56.256Z,42.63
2022-10-11T06:57:23.554Z,25.88
2022-10-11T06:59:51.018Z,24.90
2022-10-11T07:02:18.348Z,26.33
2022-10-11T07:04:45.632Z,26.23
2022-10-11T07:07:14.301Z,23.58
2022-10-11T07:09:41.565Z,20.95
2022-10-11T07:12:09.183Z,13.15
2022-10-11T07:14:36.470Z,23.13
2022-10-11T07:17:03.762Z,20.90
2022-10-11T07:19:31.244Z,19.70
2022-10-11T07:21:58.641Z,34.50
2022-10-11T07:24:26.107Z,25.83
2022-10-11T07:26:53.675Z,22.63
2022-10-11T07:29:21.157Z,24.40
2022-10-11T07:31:48.654Z,24.00
2022-10-11T07:34:16.063Z,30.02
2022-10-11T07:36:43.425Z,20.08
2022-10-11T07:39:10.913Z,24.02
2022-10-11T07:41:43.155Z,20.33
2022-10-11T07:44:13.602Z,23.95
2022-10-11T07:46:41.091Z,23.77
2022-10-11T07:49:08.408Z,29.98
2022-10-11T07:51:35.882Z,23.88
2022-10-11T07:54:07.160Z,24.17
2022-10-11T07:56:34.699Z,35.78
2022-10-11T07:59:03.590Z,30.10
2022-10-11T08:01:31.428Z,25.98
2022-10-11T08:03:59.236Z,36.72
2022-10-11T08:06:30.315Z,25.92
2022-10-11T08:08:59.820Z,17.98
2022-10-11T08:11:30.049Z,28.35
2022-10-11T08:13:59.429Z,26.17
2022-10-11T08:16:26.909Z,19.88
2022-10-11T08:18:56.754Z,20.35
2022-10-11T08:21:24.826Z,28.15
2022-10-11T08:23:52.231Z,29.67
2022-10-11T08:26:19.498Z,32.17
2022-10-11T08:28:46.897Z,32.08
2022-10-11T08:31:15.869Z,22.23
2022-10-11T08:33:43.827Z,24.65
2022-10-11T08:36:11.727Z,26.77
2022-10-11T08:38:39.659Z,28.63
2022-10-11T08:41:31.249Z,35.80
2022-10-11T08:44:20.470Z,39.78
2022-10-11T08:46:56.888Z,38.80
2022-10-11T08:49:30.812Z,24.58
2022-10-11T08:52:06.449Z,30.20
2022-10-11T08:54:54.883Z,25.67
2022-10-11T08:57:28.584Z,28.13
2022-10-11T09:00:09.095Z,22.17
2022-10-11T09:03:08.184Z,35.03
2022-10-11T09:05:51.851Z,38.08
2022-10-11T09:08:24.891Z,24.25
2022-10-11T09:11:10.890Z,22.58
2022-10-11T09:14:08.250Z,29.25
2022-10-11T09:16:42.697Z,26.35
2022-10-11T09:19:31.594Z,51.45
2022-10-11T09:22:30.880Z,40.13
2022-10-11T09:25:20.773Z,41.20
2022-10-11T09:28:04.028Z,33.72
2022-10-11T09:30:32.961Z,40.08
2022-10-11T09:33:05.990Z,37.80
2022-10-11T09:35:40.194Z,35.60
2022-10-11T09:38:18.428Z,38.85
2022-10-11T09:40:54.170Z,51.00
2022-10-11T09:43:21.764Z,22.83
2022-10-11T09:45:49.802Z,40.72
2022-10-11T09:48:23.211Z,21.55
2022-10-11T09:50:51.746Z,32.97
2022-10-11T09:53:19.401Z,44.83
2022-10-11T09:56:02.283Z,34.28
2022-10-11T09:58:36.127Z,30.65
2022-10-11T10:01:12.240Z,34.28
2022-10-11T10:03:44.102Z,27.55
2022-10-11T10:06:28.473Z,31.75
2022-10-11T10:09:20.102Z,27.50
2022-10-11T10:11:47.786Z,27.95
2022-10-11T10:14:29.957Z,29.55
2022-10-11T10:17:14.599Z,41.03
2022-10-11T10:19:54.663Z,25.58
2022-10-11T10:22:27.381Z,26.65
2022-10-11T10:24:56.198Z,34.50
2022-10-11T10:27:34.743Z,28.73
2022-10-11T10:30:07.921Z,36.20
2022-10-11T10:32:57.379Z,36.70
2022-10-11T10:35:31.243Z,26.85
2022-10-11T10:38:08.985Z,39.15
2022-10-11T10:40:52.795Z,27.63
2022-10-11T10:43:24.819Z,21.90
2022-10-11T10:45:58.326Z,35.30
2022-10-11T10:49:12.062Z,28.33
2022-10-11T10:52:03.384Z,39.63
2022-10-11T10:54:40.147Z,19.35
2022-10-11T10:57:37.106Z,18.38
2022-10-11T11:00:19.670Z,34.83
2022-10-11T11:03:06.404Z,21.33
2022-10-11T11:05:58.289Z,20.10
2022-10-11T11:08:46.731Z,16.88
2022-10-11T11:11:26.054Z,17.38
2022-10-11T11:13:59.163Z,22.02
2022-10-11T11:16:36.049Z,18.15
2022-10-11T11:19:06.066Z,24.23
2022-10-11T11:21:59.624Z,19.38
2022-10-11T11:24:43.507Z,14.27
2022-10-11T11:27:44.303Z,28.38
2022-10-11T11:30:22.997Z,19.42
2022-10-11T11:33:22.067Z,16.40
2022-10-11T11:35:54.779Z,19.00
2022-10-11T11:38:30.590Z,16.10
2022-10-11T11:41:05.297Z,21.48
2022-10-11T11:43:37.828Z,10.27
2022-10-11T11:46:32.999Z,18.50
2022-10-11T11:49:12.137Z,11.68
2022-10-11T11:51:45.346Z,14.27
2022-10-11T11:54:24.457Z,12.07
2022-10-11T11:57:01.742Z,16.25
2022-10-11T12:02:35.379Z,21.20
2022-10-11T12:05:05.178Z,14.05
2022-10-11T12:07:57.388Z,14.02
2022-10-11T12:10:53.458Z,21.52
2022-10-11T12:13:31.933Z,15.32
2022-10-11T12:16:12.055Z,13.45
2022-10-11T12:18:56.318Z,11.60
2022-10-11T12:21:37.778Z,14.45
2022-10-11T12:24:20.212Z,7.95
2022-10-11T12:26:49.853Z,19.52
2022-10-11T12:29:17.315Z,15.52
2022-10-11T12:31:47.582Z,12.75
2022-10-11T12:34:20.524Z,12.40
2022-10-11T12:36:50.061Z,10.07
2022-10-11T12:39:22.989Z,15.32
2022-10-11T12:41:53.861Z,14.70
2022-10-11T12:44:23.468Z,16.42
2022-10-11T12:46:50.684Z,13.15
2022-10-11T12:50:06.150Z,10.00
2022-10-11T12:52:40.375Z,14.70
2022-10-11T12:55:28.305Z,14.73
2022-10-11T12:58:38.435Z,16.02
2022-10-11T13:01:13.865Z,20.90
2022-10-11T13:03:42.567Z,16.70
2022-10-11T13:06:17.208Z,19.92
2022-10-11T13:08:51.044Z,14.40
2022-10-11T13:11:29.559Z,10.98
2022-10-11T13:14:00.377Z,10.77
2022-10-11T13:17:11.898Z,16.50
2022-10-11T13:22:23.556Z,13.48
2022-10-11T13:24:50.808Z,11.02
2022-10-11T13:27:23.913Z,11.90
2022-10-11T13:29:53.600Z,15.98
2022-10-11T13:32:26.522Z,14.55
2022-10-11T13:35:01.397Z,12.73
2022-10-11T13:37:30.537Z,17.33
2022-10-11T13:39:58.457Z,10.70
2022-10-11T13:42:31.443Z,13.15
2022-10-11T13:45:00.103Z,10.32
2022-10-11T13:47:30.594Z,12.15
2022-10-11T13:50:22.632Z,25.90
2022-10-11T13:53:00.786Z,10.02
2022-10-11T13:55:35.404Z,19.42
2022-10-11T13:58:12.807Z,18.85
2022-10-11T14:00:56.139Z,10.98
2022-10-11T14:03:27.621Z,11.98
2022-10-11T14:06:00.099Z,18.52
2022-10-11T14:08:39.619Z,9.90
2022-10-11T14:11:08.030Z,17.23
2022-10-11T14:13:46.354Z,17.90
2022-10-11T14:16:29.582Z,19.75
2022-10-11T14:18:59.908Z,19.50
2022-10-11T14:24:27.488Z,18.70
2022-10-11T14:26:56.376Z,19.60
2022-10-11T14:29:28.340Z,9.85
2022-10-11T14:32:10.998Z,16.08
2022-10-11T14:34:38.454Z,12.43
2022-10-11T14:37:06.032Z,16.77
2022-10-11T14:39:33.661Z,22.02
2022-10-11T14:42:01.042Z,18.45
2022-10-11T14:44:28.482Z,19.30
2022-10-11T14:46:55.899Z,19.55
2022-10-11T14:49:28.557Z,12.55
2022-10-11T14:51:57.982Z,12.27
2022-10-11T14:54:27.459Z,17.63
2022-10-11T14:56:56.908Z,20.48
2022-10-11T14:59:26.801Z,15.18
2022-10-11T15:01:54.579Z,24.45
2022-10-11T15:04:23.981Z,16.63
2022-10-11T15:06:52.854Z,17.92
2022-10-11T15:09:21.472Z,20.58
2022-10-11T15:11:50.376Z,14.48
2022-10-11T15:14:17.865Z,11.23
2022-10-11T15:16:45.180Z,12.77
2022-10-11T15:19:18.788Z,9.48
2022-10-11T15:21:46.949Z,15.27
2022-10-11T15:24:15.034Z,15.65
2022-10-11T15:26:42.863Z,9.85
2022-10-11T15:29:14.206Z,8.52
2022-10-11T15:31:41.505Z,11.18
2022-10-11T15:34:08.874Z,16.92
2022-10-11T15:36:36.124Z,12.90
2022-10-11T15:39:03.912Z,12.95
2022-10-11T15:41:31.286Z,16.70
2022-10-11T15:43:58.608Z,9.18
2022-10-11T15:46:25.938Z,10.35
2022-10-11T15:48:53.370Z,11.32
2022-10-11T15:51:20.681Z,11.50
2022-10-11T15:53:48.022Z,11.70
2022-10-11T15:56:18.644Z,12.95
2022-10-11T15:58:46.810Z,16.05
2022-10-11T16:01:17.468Z,16.35
2022-10-11T16:03:46.715Z,13.05
2022-10-11T16:06:15.065Z,13.18
2022-10-11T16:08:42.334Z,10.27
2022-10-11T16:11:11.890Z,18.00
2022-10-11T16:13:39.373Z,14.55
2022-10-11T16:16:08.431Z,11.63
2022-10-11T16:18:36.422Z,17.65
2022-10-11T16:21:10.202Z,10.77
2022-10-11T16:23:38.393Z,10.52
2022-10-11T16:26:11.212Z,8.63
2022-10-11T16:28:38.590Z,11.38
2022-10-11T16:31:08.022Z,7.45
2022-10-11T16:33:35.378Z,10.63
2022-10-11T16:36:26.258Z,16.58
2022-10-11T16:38:53.863Z,13.52
2022-10-11T16:41:21.149Z,13.05
2022-10-11T16:43:52.539Z,8.20
2022-10-11T16:46:20.090Z,11.98
2022-10-11T16:48:47.762Z,15.60
2022-10-11T16:51:15.352Z,12.80
2022-10-11T16:53:42.639Z,14.65
2022-10-11T16:56:11.486Z,11.10
2022-10-11T16:58:38.938Z,11.23
2022-10-11T17:01:10.939Z,14.43
2022-10-11T17:03:38.769Z,12.18
2022-10-11T17:06:07.120Z,15.85
2022-10-11T17:08:35.310Z,9.48
2022-10-11T17:11:03.113Z,10.15
2022-10-11T17:13:30.764Z,12.55
2022-10-11T17:15:58.276Z,16.45
2022-10-11T17:18:26.806Z,25.88
2022-10-11T17:21:05.429Z,13.25
2022-10-11T17:23:34.202Z,12.35
2022-10-11T17:26:11.053Z,12.70
2022-10-11T17:31:08.178Z,16.25
2022-10-11T17:33:35.710Z,15.43
2022-10-11T17:36:23.195Z,17.98
2022-10-11T17:38:51.794Z,21.63
2022-10-11T17:41:19.571Z,20.08
2022-10-11T17:43:47.251Z,12.27
2022-10-11T17:46:16.156Z,13.27
2022-10-11T17:48:45.401Z,17.80
2022-10-11T17:51:16.128Z,18.10
2022-10-11T17:53:44.346Z,15.05
2022-10-11T17:56:14.472Z,17.63
2022-10-11T17:58:42.723Z,14.27
2022-10-11T18:01:14.171Z,19.92
2022-10-11T18:03:42.552Z,18.58
2022-10-11T18:06:12.359Z,16.17
2022-10-11T18:08:40.997Z,22.90
2022-10-11T18:11:13.816Z,13.15
2022-10-11T18:13:46.006Z,23.17
2022-10-11T18:16:15.133Z,41.65
2022-10-11T18:18:43.468Z,25.00
2022-10-11T18:21:12.849Z,37.20
2022-10-11T18:23:40.951Z,26.65
2022-10-11T18:26:20.222Z,27.48
2022-10-11T18:28:47.997Z,26.25
2022-10-11T18:31:18.896Z,30.83
2022-10-11T18:33:47.574Z,29.42
2022-10-11T18:36:16.449Z,30.40
2022-10-11T18:38:46.708Z,22.98
2022-10-11T18:41:16.787Z,36.53
2022-10-11T18:43:52.431Z,43.13
2022-10-11T18:46:20.953Z,44.40
2022-10-11T18:48:50.261Z,47.92
2022-10-11T18:51:26.909Z,65.70
2022-10-11T18:53:55.259Z,68.93
2022-10-11T18:56:25.965Z,58.05
2022-10-11T18:58:56.228Z,56.75
2022-10-11T19:01:27.032Z,48.75
2022-10-11T19:03:56.673Z,43.35
2022-10-11T19:06:35.742Z,65.05
2022-10-11T19:09:06.145Z,63.83
2022-10-11T19:11:34.009Z,49.25
2022-10-11T19:14:08.565Z,50.95
2022-10-11T19:16:38.367Z,58.75
2022-10-11T19:19:06.934Z,35.70
2022-10-11T19:21:34.219Z,42.03
2022-10-11T19:24:01.770Z,28.95
2022-10-11T19:26:33.403Z,43.97
2022-10-11T19:29:03.825Z,37.92
2022-10-11T19:31:33.294Z,28.42
2022-10-11T19:34:00.931Z,27.98
2022-10-11T19:36:32.596Z,30.38
2022-10-11T19:39:03.193Z,28.67
2022-10-11T19:41:30.640Z,26.17
2022-10-11T19:44:00.683Z,24.27
2022-10-11T19:49:17.708Z,21.60
2022-10-11T19:51:45.123Z,37.53
2022-10-11T19:54:13.787Z,43.00
2022-10-11T19:56:42.429Z,39.38
2022-10-11T19:59:11.014Z,42.25
2022-10-11T20:01:39.000Z,32.80
2022-10-11T20:04:09.171Z,29.17
2022-10-11T20:06:40.149Z,24.90
2022-10-11T20:09:29.609Z,28.70
2022-10-11T20:11:56.967Z,28.48
2022-10-11T20:14:24.289Z,21.88
2022-10-11T20:16:52.044Z,29.00
2022-10-11T20:19:19.714Z,32.28
2022-10-11T20:21:47.859Z,25.58
2022-10-11T20:24:15.141Z,25.70
2022-10-11T20:26:42.382Z,39.58
2022-10-11T20:29:09.660Z,38.58
2022-10-11T20:31:41.714Z,48.53
2022-10-11T20:34:09.922Z,41.45
2022-10-11T20:36:37.339Z,48.03
2022-10-11T20:39:05.634Z,49.35
2022-10-11T20:41:37.160Z,38.47
2022-10-11T20:44:05.166Z,37.35
2022-10-11T20:46:35.092Z,27.02
2022-10-11T20:49:07.318Z,32.42
2022-10-11T20:51:37.114Z,29.35
2022-10-11T20:54:04.762Z,24.38
2022-10-11T20:56:32.402Z,27.67
2022-10-11T20:58:59.987Z,28.92
2022-10-11T21:01:39.673Z,23.67
2022-10-11T21:04:09.937Z,38.10
2022-10-11T21:06:37.276Z,19.88
2022-10-11T21:09:04.638Z,30.75
2022-10-11T21:11:33.578Z,32.60
2022-10-11T21:14:03.098Z,25.77
2022-10-11T21:16:30.842Z,31.23
2022-10-11T21:18:59.648Z,26.48
2022-10-11T21:21:28.215Z,33.97
2022-10-11T21:23:57.135Z,34.40
2022-10-11T21:26:25.054Z,23.25
2022-10-11T21:28:52.565Z,32.53
2022-10-11T21:31:23.478Z,26.27
2022-10-11T21:33:51.098Z,35.03
2022-10-11T21:36:21.744Z,27.08
2022-10-11T21:38:50.687Z,24.80
2022-10-11T21:41:22.378Z,27.33
2022-10-11T21:43:49.749Z,45.60
2022-10-11T21:46:19.727Z,47.65
2022-10-11T21:48:47.232Z,35.72
2022-10-11T21:51:18.660Z,29.52
2022-10-11T21:53:45.977Z,27.02
2022-10-11T21:56:13.527Z,34.05
2022-10-11T21:58:40.879Z,28.65
2022-10-11T22:01:08.513Z,18.98
2022-10-11T22:03:35.850Z,25.00
2022-10-11T22:06:03.868Z,13.55
2022-10-11T22:08:31.459Z,15.75
2022-10-11T22:11:00.124Z,17.08
2022-10-11T22:13:29.449Z,17.05
2022-10-11T22:15:56.820Z,22.90
2022-10-11T22:18:24.554Z,24.05
2022-10-11T22:20:52.024Z,14.80
2022-10-11T22:23:19.410Z,17.65
2022-10-11T22:25:46.830Z,28.95
2022-10-11T22:28:14.202Z,16.40
2022-10-11T22:30:41.590Z,38.63
2022-10-11T22:33:08.834Z,21.02
2022-10-11T22:35:37.613Z,23.02
2022-10-11T22:38:06.217Z,18.05
2022-10-11T22:40:33.571Z,16.60
2022-10-11T22:43:00.846Z,22.38
2022-10-11T22:45:28.326Z,27.90
2022-10-11T22:47:55.517Z,20.95
2022-10-11T22:50:22.893Z,33.53
2022-10-11T22:52:50.126Z,25.45
2022-10-11T22:55:20.122Z,21.45
2022-10-11T22:57:47.649Z,21.48
2022-10-11T23:00:15.201Z,12.70
2022-10-11T23:02:42.494Z,18.65
2022-10-11T23:05:11.682Z,34.33
2022-10-11T23:07:39.326Z,27.48
2022-10-11T23:10:07.606Z,34.85
2022-10-11T23:12:34.953Z,17.50
2022-10-11T23:15:02.211Z,17.83
2022-10-11T23:17:29.509Z,19.13
2022-10-11T23:19:56.775Z,22.35
2022-10-11T23:22:25.469Z,17.27
2022-10-11T23:24:52.928Z,22.20
2022-10-11T23:27:20.324Z,15.35
2022-10-11T23:29:47.588Z,20.83
2022-10-11T23:32:14.841Z,27.55
2022-10-11T23:34:42.289Z,13.48
2022-10-11T23:37:09.656Z,18.63
2022-10-11T23:39:37.040Z,14.10
2022-10-11T23:42:04.373Z,20.58
2022-10-11T23:44:31.617Z,17.08
2022-10-11T23:46:58.945Z,21.92
2022-10-11T23:49:26.161Z,20.70
2022-10-11T23:51:53.417Z,17.50
2022-10-11T23:54:20.629Z,18.90
2022-10-11T23:56:47.929Z,26.13
2022-10-11T23:59:15.215Z,23.73
